Time;durP1;ratioP1;P1;durP2;ratioP2;P2;SDS_P1;SDS_P2;PMS_P1;PMS_P2;Temp;Humidity;BMP_temperature;BMP_pressure;BME280_temperature;BME280_humidity;BME280_pressure;Samples;Min_cycle;Max_cycle;Signal;HPM_P1;HPM_P2
2022/11/07 00:01:28;;;;;;;10.20;3.92;;;;;;;8.93;96.53;100351.63;5013800;28;20048;-73
2022/11/07 00:03:54;;;;;;;7.32;4.15;;;;;;;9.08;95.38;100375.34;5025434;28;20084;-73
2022/11/07 00:06:20;;;;;;;6.80;3.75;;;;;;;9.02;96.30;100355.22;5012745;28;20029;-73
2022/11/07 00:08:45;;;;;;;11.02;4.43;;;;;;;9.16;95.36;100356.47;4994847;28;20032;-73
2022/11/07 00:11:10;;;;;;;7.95;4.30;;;;;;;9.14;95.42;100353.09;5007462;28;20021;-73
2022/11/07 00:13:36;;;;;;;10.50;4.30;;;;;;;9.05;95.55;100354.88;5013481;28;20490;-73
2022/11/07 00:16:04;;;;;;;6.32;4.10;;;;;;;9.28;94.56;100357.88;5030368;28;20051;-73
2022/11/07 00:18:30;;;;;;;6.15;4.15;;;;;;;9.21;95.40;100359.53;5012641;28;20040;-73
2022/11/07 00:20:55;;;;;;;12.25;4.72;;;;;;;9.38;94.31;100358.56;5012832;28;20025;-73
2022/11/07 00:23:20;;;;;;;12.02;5.35;;;;;;;9.28;94.47;100360.56;5012929;28;20124;-73
2022/11/07 00:25:45;;;;;;;6.90;4.07;;;;;;;9.32;94.92;100345.72;5012988;28;20090;-73
2022/11/07 00:28:11;;;;;;;9.48;4.70;;;;;;;9.28;95.26;100349.75;5012242;28;20026;-73
2022/11/07 00:30:36;;;;;;;9.43;4.32;;;;;;;9.49;94.11;100357.44;5030166;28;20017;-73
2022/11/07 00:33:03;;;;;;;6.90;3.78;;;;;;;9.63;93.20;100347.84;5012576;28;20029;-73
2022/11/07 00:35:28;;;;;;;6.07;3.45;;;;;;;9.62;93.05;100357.81;5013122;28;20059;-73
2022/11/07 00:37:55;;;;;;;9.30;5.30;;;;;;;9.69;92.68;100363.41;5014252;28;20119;-73
2022/11/07 00:40:20;;;;;;;8.07;4.20;;;;;;;9.64;92.95;100363.03;5016950;28;20025;-73
2022/11/07 00:42:46;;;;;;;10.85;4.45;;;;;;;9.83;92.38;100354.66;5017060;28;20067;-73
2022/11/07 00:45:12;;;;;;;11.23;4.88;;;;;;;9.77;92.83;100355.31;5013065;28;20113;-73
2022/11/07 00:47:38;;;;;;;10.00;4.53;;;;;;;9.83;92.37;100365.47;5014265;28;20052;-73
2022/11/07 00:50:04;;;;;;;7.13;4.53;;;;;;;9.89;92.23;100369.38;5024679;28;20108;-72
2022/11/07 00:52:30;;;;;;;8.57;4.15;;;;;;;9.86;93.13;100365.16;5016843;28;20129;-71
2022/11/07 00:54:55;;;;;;;10.00;4.75;;;;;;;9.96;91.92;100370.38;5034149;28;20025;-71
2022/11/07 00:57:20;;;;;;;7.97;4.20;;;;;;;9.96;92.31;100371.22;5016331;28;20108;-72
2022/11/07 00:59:45;;;;;;;10.35;4.88;;;;;;;10.03;91.97;100377.66;5016155;28;20104;-71
2022/11/07 01:02:11;;;;;;;13.73;3.97;;;;;;;10.09;91.71;100380.72;5033017;28;20022;-72
2022/11/07 01:07:20;;;;;;;9.73;4.00;;;;;;;10.11;91.33;100381.41;5033631;28;20025;-72
2022/11/07 01:09:46;;;;;;;10.90;4.30;;;;;;;10.15;91.04;100380.06;5033601;28;20025;-71
2022/11/07 01:12:11;;;;;;;13.20;4.38;;;;;;;10.11;91.27;100384.13;5016145;28;20100;-71
2022/11/07 01:14:36;;;;;;;8.18;4.28;;;;;;;10.05;92.12;100381.06;5033532;28;20028;-71
2022/11/07 01:17:02;;;;;;;8.45;4.47;;;;;;;10.11;91.39;100390.38;5033068;28;20116;-71
2022/11/07 01:19:27;;;;;;;8.18;4.18;;;;;;;10.10;91.70;100374.28;5016494;28;20032;-71
2022/11/07 01:21:52;;;;;;;8.38;3.72;;;;;;;10.24;91.15;100379.09;5016254;28;20088;-72
2022/11/07 01:24:18;;;;;;;8.10;3.83;;;;;;;10.23;91.40;100382.78;5033563;28;20025;-71
2022/11/07 01:26:46;;;;;;;7.35;3.65;;;;;;;10.32;90.98;100381.78;5015459;28;20028;-71
2022/11/07 01:29:12;;;;;;;18.73;4.47;;;;;;;10.32;91.23;100376.38;5033807;28;20036;-72
2022/11/07 01:31:38;;;;;;;8.93;3.83;;;;;;;10.37;91.17;100406.50;5033400;28;20022;-71
2022/11/07 01:34:04;;;;;;;10.55;3.70;;;;;;;10.46;91.03;100391.94;5015598;28;20053;-71
2022/11/07 01:36:29;;;;;;;13.68;3.90;;;;;;;10.40;90.89;100373.66;5015681;28;20452;-74
2022/11/07 01:38:54;;;;;;;6.93;3.47;;;;;;;10.39;91.00;100377.41;5027842;28;20078;-71
2022/11/07 01:41:24;;;;;;;7.10;3.72;;;;;;;10.45;91.47;100376.72;5025410;28;20021;-71
2022/11/07 01:44:21;;;;;;;10.48;3.80;;;;;;;10.40;91.48;100384.50;5033000;28;20032;-71
2022/11/07 01:46:47;;;;;;;11.27;4.00;;;;;;;10.48;91.15;100376.38;5015110;28;20036;-74
2022/11/07 01:49:24;;;;;;;9.70;3.80;;;;;;;10.33;91.73;100378.06;5032539;28;20133;-72
2022/11/07 01:52:13;;;;;;;8.27;3.65;;;;;;;10.38;91.44;100375.72;5015709;28;20017;-71
2022/11/07 01:54:53;;;;;;;6.30;3.42;;;;;;;10.52;90.81;100377.72;5016260;28;20037;-71
2022/11/07 01:57:22;;;;;;;7.25;3.65;;;;;;;10.43;91.39;100381.47;5033220;28;20057;-71
2022/11/07 01:59:51;;;;;;;9.00;3.25;;;;;;;10.39;91.15;100371.97;5015854;28;20093;-71
2022/11/07 02:02:16;;;;;;;9.35;3.95;;;;;;;10.42;91.73;100382.47;5032963;28;20033;-72
2022/11/07 02:04:43;;;;;;;7.13;3.33;;;;;;;10.49;91.48;100378.06;5015012;28;20038;-72
2022/11/07 02:07:20;;;;;;;11.23;4.38;;;;;;;10.42;91.67;100377.03;5015032;28;20033;-71
2022/11/07 02:09:47;;;;;;;9.63;3.80;;;;;;;10.55;91.12;100376.53;5015389;28;20124;-72
2022/11/07 02:12:13;;;;;;;7.72;3.75;;;;;;;10.48;91.46;100375.53;5032623;28;20040;-72
2022/11/07 02:14:41;;;;;;;7.82;3.50;;;;;;;10.46;91.64;100373.00;5014579;28;20021;-72
2022/11/07 02:17:06;;;;;;;9.35;3.75;;;;;;;10.51;91.15;100376.03;5014413;28;20044;-72
2022/11/07 02:19:41;;;;;;;11.95;4.00;;;;;;;10.52;91.22;100361.50;5014847;28;20072;-71
2022/11/07 02:22:19;;;;;;;9.68;4.38;;;;;;;10.52;91.25;100377.72;5032481;28;20029;-71
2022/11/07 02:24:48;;;;;;;10.30;3.65;;;;;;;10.48;91.73;100368.25;5014763;28;20030;-72
2022/11/07 02:27:18;;;;;;;9.02;4.57;;;;;;;10.58;91.23;100378.91;5032639;28;20029;-72
2022/11/07 02:29:48;;;;;;;6.40;3.22;;;;;;;10.72;91.13;100366.53;5014974;28;20486;-71
2022/11/07 02:32:13;;;;;;;8.48;3.55;;;;;;;10.73;91.32;100373.66;5015247;28;20021;-72
2022/11/07 02:34:39;;;;;;;13.95;3.30;;;;;;;10.63;91.73;100372.97;5032476;28;20021;-72
2022/11/07 02:37:37;;;;;;;6.43;3.50;;;;;;;10.73;91.22;100373.66;5014501;28;20017;-71
2022/11/07 02:40:09;;;;;;;14.60;3.35;;;;;;;10.80;90.83;100374.66;4994435;28;20018;-72
2022/11/07 02:42:45;;;;;;;9.70;3.15;;;;;;;10.80;91.28;100380.06;5007831;28;20025;-72
2022/11/07 02:45:26;;;;;;;16.05;4.07;;;;;;;10.95;90.55;100372.91;5014653;28;20145;-71
2022/11/07 02:47:51;;;;;;;8.57;3.55;;;;;;;10.89;91.16;100379.06;5031621;28;20037;-72
2022/11/07 02:50:17;;;;;;;12.43;3.78;;;;;;;10.94;90.87;100376.66;5014615;28;20028;-71
2022/11/07 02:52:43;;;;;;;12.70;3.08;;;;;;;11.02;90.52;100384.78;5014332;28;20029;-71
2022/11/07 02:55:10;;;;;;;5.95;3.17;;;;;;;11.01;90.73;100377.63;5014092;28;20028;-72
2022/11/07 02:57:35;;;;;;;8.20;3.38;;;;;;;11.09;90.64;100380.34;5014676;28;20035;-72
2022/11/07 03:00:00;;;;;;;13.55;3.03;;;;;;;11.06;90.71;100391.50;5013307;28;20021;-71
2022/11/07 03:02:26;;;;;;;7.45;3.13;;;;;;;11.11;90.63;100389.13;5031639;28;20112;-71
2022/11/07 03:04:52;;;;;;;13.13;3.05;;;;;;;11.06;90.92;100386.09;5014510;28;20029;-71
2022/11/07 03:07:17;;;;;;;11.93;4.03;;;;;;;11.18;90.51;100388.44;5013609;28;20026;-71
2022/11/07 03:09:43;;;;;;;10.15;3.45;;;;;;;11.17;90.42;100384.06;5030493;28;20028;-72
2022/11/07 03:12:08;;;;;;;11.65;3.75;;;;;;;11.16;90.33;100385.91;5013883;28;20064;-71
2022/11/07 03:14:34;;;;;;;11.68;3.55;;;;;;;11.01;91.23;100377.63;5031464;28;20074;-71
2022/11/07 03:16:59;;;;;;;8.88;3.08;;;;;;;11.17;90.75;100381.34;5065331;23;20049;-74
2022/11/07 03:19:24;;;;;;;10.85;2.85;;;;;;;11.19;90.82;100382.00;5026568;28;20103;-74
2022/11/07 03:21:50;;;;;;;8.40;3.00;;;;;;;11.21;90.36;100388.94;5007578;28;20497;-74
2022/11/07 03:24:16;;;;;;;7.22;3.50;;;;;;;11.30;90.65;100381.63;5025714;28;20072;-74
2022/11/07 03:26:41;;;;;;;9.65;3.03;;;;;;;11.17;90.69;100381.34;4992207;28;20037;-74
2022/11/07 03:29:07;;;;;;;9.50;2.85;;;;;;;11.22;90.67;100384.38;4992956;28;20030;-74
2022/11/07 03:31:32;;;;;;;13.32;3.25;;;;;;;11.32;90.85;100393.13;5007630;28;20032;-73
2022/11/07 03:33:57;;;;;;;6.82;3.08;;;;;;;11.17;91.03;100392.19;4997223;28;20034;-73
2022/11/07 03:36:23;;;;;;;7.28;2.85;;;;;;;11.34;90.53;100393.78;4991563;28;20104;-73
2022/11/07 03:38:48;;;;;;;12.75;3.10;;;;;;;11.29;90.74;100396.22;4996114;28;20116;-73
2022/11/07 03:41:16;;;;;;;7.47;3.05;;;;;;;11.34;90.55;100405.47;4999907;28;20029;-72
2022/11/07 03:43:45;;;;;;;8.25;3.30;;;;;;;11.31;90.85;100405.00;5027775;28;20120;-73
2022/11/07 03:46:15;;;;;;;17.10;3.78;;;;;;;11.42;90.51;100401.91;5028756;28;20545;-72
2022/11/07 03:48:40;;;;;;;13.43;2.97;;;;;;;11.48;90.30;100395.81;5028859;28;20037;-72
2022/11/07 03:51:07;;;;;;;14.38;4.43;;;;;;;11.48;90.45;100395.81;4996962;28;20022;-74
2022/11/07 03:53:33;;;;;;;14.57;3.65;;;;;;;11.45;90.66;100385.28;5009484;28;20418;-73
2022/11/07 03:55:59;;;;;;;14.45;3.58;;;;;;;11.46;90.63;100403.25;5009333;28;20021;-73
2022/11/07 03:58:25;;;;;;;11.57;4.03;;;;;;;11.37;90.92;100398.88;4991469;28;20096;-73
2022/11/07 04:00:51;;;;;;;9.32;3.40;;;;;;;11.44;91.20;100408.00;4991764;28;20026;-73
2022/11/07 04:03:16;;;;;;;17.00;3.63;;;;;;;11.50;90.42;100404.59;4991458;28;20026;-73
2022/11/07 04:05:42;;;;;;;9.77;3.10;;;;;;;11.67;89.93;100400.78;5026681;28;20029;-73
2022/11/07 04:08:07;;;;;;;10.77;3.10;;;;;;;11.51;90.97;100406.28;5013453;28;20084;-73
2022/11/07 04:10:33;;;;;;;14.57;3.22;;;;;;;11.37;91.58;100410.56;5033167;28;20021;-73
2022/11/07 04:18:28;;;;;;;10.98;3.20;;;;;;;11.41;91.76;100394.81;5028794;28;20033;-73
2022/11/07 04:20:53;;;;;;;12.52;3.28;;;;;;;11.41;91.69;100411.06;5012277;28;20104;-73
2022/11/07 04:23:19;;;;;;;5.85;2.58;;;;;;;11.48;91.43;100403.94;5011241;28;20086;-73
2022/11/07 04:28:28;;;;;;;11.00;3.17;;;;;;;11.60;90.93;100405.22;5028286;28;20053;-72
2022/11/07 04:30:53;;;;;;;11.52;2.97;;;;;;;11.59;91.17;100402.69;5028512;28;20013;-73
2022/11/07 04:33:19;;;;;;;14.90;3.25;;;;;;;11.55;91.49;100402.22;5028336;28;20478;-73
2022/11/07 04:35:44;;;;;;;12.68;2.50;;;;;;;11.51;91.35;100400.84;5011062;28;20110;-73
2022/11/07 04:38:09;;;;;;;14.38;3.15;;;;;;;11.52;91.68;100416.09;5008382;28;20017;-72
2022/11/07 04:40:35;;;;;;;12.85;2.80;;;;;;;11.59;91.57;100408.94;5028281;28;20018;-72
2022/11/07 04:43:02;;;;;;;14.20;3.08;;;;;;;11.54;91.47;100405.94;5028114;28;20033;-73
2022/11/07 04:45:27;;;;;;;11.52;3.15;;;;;;;11.55;91.67;100394.06;5011209;28;20119;-73
2022/11/07 04:47:52;;;;;;;9.35;3.40;;;;;;;11.53;91.81;100415.06;5010538;28;20109;-73
2022/11/07 04:50:19;;;;;;;10.85;2.97;;;;;;;11.55;91.88;100413.06;5028125;28;20625;-73
2022/11/07 04:52:46;;;;;;;10.10;2.90;;;;;;;11.52;91.94;100399.81;5010876;28;20117;-73
2022/11/07 04:55:18;;;;;;;13.38;3.53;;;;;;;11.53;92.24;100393.38;5010152;28;20041;-72
2022/11/07 04:57:44;;;;;;;14.43;3.30;;;;;;;11.41;92.72;100408.38;5010898;28;20444;-73
2022/11/07 05:00:10;;;;;;;8.73;3.50;;;;;;;11.44;92.53;100405.28;5027327;28;20021;-73
2022/11/07 05:02:35;;;;;;;12.50;3.88;;;;;;;11.41;93.00;100411.06;5010866;28;20056;-72
2022/11/07 05:05:00;;;;;;;13.45;3.13;;;;;;;11.39;92.91;100413.94;5010533;28;20029;-72
2022/11/07 05:07:26;;;;;;;10.30;3.72;;;;;;;11.45;92.91;100417.81;5027688;28;20033;-74
2022/11/07 05:09:51;;;;;;;8.88;3.10;;;;;;;11.39;93.39;100418.53;5010170;28;20064;-74
2022/11/07 05:12:16;;;;;;;12.57;3.08;;;;;;;11.48;93.13;100428.34;5028062;28;20067;-74
2022/11/07 05:14:42;;;;;;;12.80;2.95;;;;;;;11.55;92.34;100421.19;5026700;28;20026;-74
2022/11/07 05:17:14;;;;;;;10.25;2.92;;;;;;;11.50;93.08;100420.84;5026588;28;20029;-74
2022/11/07 05:19:42;;;;;;;13.32;3.55;;;;;;;11.57;92.68;100431.84;5010701;28;20079;-74
2022/11/07 05:24:52;;;;;;;18.38;3.33;;;;;;;11.64;92.35;100433.66;5030526;28;20026;-74
2022/11/07 05:27:26;;;;;;;14.38;3.35;;;;;;;11.68;92.62;100424.19;5031443;28;20086;-74
2022/11/07 05:29:55;;;;;;;16.60;3.47;;;;;;;11.58;92.78;100422.69;5029618;28;20021;-74
2022/11/07 05:32:20;;;;;;;15.77;3.13;;;;;;;11.63;92.33;100415.72;5013813;28;20038;-74
2022/11/07 05:34:46;;;;;;;13.88;3.42;;;;;;;11.74;91.98;100411.78;5030346;28;20241;-73
2022/11/07 05:37:14;;;;;;;15.82;3.88;;;;;;;11.58;92.58;100418.09;5030213;28;20135;-74
2022/11/07 05:39:40;;;;;;;11.07;3.25;;;;;;;11.57;92.93;100432.69;5014736;28;20029;-74
2022/11/07 05:42:06;;;;;;;12.90;3.00;;;;;;;11.58;92.42;100428.94;5015205;28;20094;-74
2022/11/07 05:44:31;;;;;;;16.80;4.28;;;;;;;11.39;93.33;100424.78;5031902;28;20025;-74
2022/11/07 05:46:57;;;;;;;15.27;3.30;;;;;;;11.37;93.58;100431.41;5014574;28;20037;-74
2022/11/07 05:49:23;;;;;;;13.68;3.50;;;;;;;11.50;93.16;100433.56;5029867;28;20032;-74
2022/11/07 05:51:49;;;;;;;16.95;3.88;;;;;;;11.35;93.90;100426.16;5031393;28;20026;-75
2022/11/07 05:54:14;;;;;;;15.93;3.83;;;;;;;11.30;94.08;100441.25;5003679;28;20029;-74
2022/11/07 05:56:42;;;;;;;15.80;3.92;;;;;;;11.30;94.29;100427.72;5012690;28;20104;-74
2022/11/07 05:59:07;;;;;;;19.60;4.05;;;;;;;11.29;94.34;100428.72;5030812;28;20416;-74
2022/11/07 06:01:33;;;;;;;27.30;5.32;;;;;;;11.24;94.43;100433.81;5013941;28;20079;-73
2022/11/07 06:03:58;;;;;;;11.93;2.78;;;;;;;11.32;93.97;100428.38;5012132;28;20036;-74
2022/11/07 06:06:23;;;;;;;22.13;3.47;;;;;;;11.38;93.79;100435.81;5022603;28;20093;-74
2022/11/07 06:08:49;;;;;;;10.23;3.40;;;;;;;11.35;93.85;100437.00;5011231;28;20543;-73
2022/11/07 06:11:14;;;;;;;14.73;4.68;;;;;;;11.40;93.76;100441.88;5020323;28;20049;-73
2022/11/07 06:13:39;;;;;;;17.02;3.50;;;;;;;11.44;93.40;100445.94;5013065;28;20037;-73
2022/11/07 06:16:05;;;;;;;12.02;3.28;;;;;;;11.41;93.73;100438.19;5031247;28;20037;-73
2022/11/07 06:18:31;;;;;;;9.00;3.63;;;;;;;11.56;93.17;100455.41;5012777;28;20048;-74
2022/11/07 06:21:00;;;;;;;12.40;3.45;;;;;;;11.52;93.34;100447.78;5013499;28;20026;-73
2022/11/07 06:23:25;;;;;;;16.58;3.10;;;;;;;11.54;93.21;100449.31;5009969;28;20086;-74
2022/11/07 06:25:50;;;;;;;18.05;3.88;;;;;;;11.39;94.07;100451.03;5011600;28;20033;-74
2022/11/07 06:28:16;;;;;;;15.52;3.80;;;;;;;11.36;94.14;100462.25;5011112;28;20139;-74
2022/11/07 06:30:43;;;;;;;14.63;3.90;;;;;;;11.34;94.46;100448.00;5011147;28;20033;-73
2022/11/07 06:33:17;;;;;;;20.90;3.72;;;;;;;11.36;94.23;100456.81;4994142;28;20370;-73
2022/11/07 06:35:43;;;;;;;16.77;3.78;;;;;;;11.32;94.70;100460.88;4993749;28;20034;-74
2022/11/07 06:38:11;;;;;;;18.77;3.88;;;;;;;11.39;94.19;100478.16;5013859;28;20030;-74
2022/11/07 06:40:37;;;;;;;15.13;3.85;;;;;;;11.30;94.28;100458.38;5009619;28;20124;-74
2022/11/07 06:43:14;;;;;;;12.20;3.28;;;;;;;11.25;94.84;100470.75;5010515;28;20474;-74
2022/11/07 06:45:41;;;;;;;12.95;3.10;;;;;;;11.32;94.74;100466.31;5013468;28;20098;-74
2022/11/07 06:48:07;;;;;;;31.92;5.03;;;;;;;11.22;95.09;100471.09;5029563;28;20398;-73
2022/11/07 06:50:33;;;;;;;12.80;3.88;;;;;;;11.14;95.63;100480.91;5012573;28;20496;-74
2022/11/07 06:53:17;;;;;;;18.80;3.40;;;;;;;11.15;95.18;100470.94;5013316;28;20029;-74
2022/11/07 06:55:43;;;;;;;19.67;3.55;;;;;;;11.30;94.61;100484.63;5030259;28;20060;-75
2022/11/07 06:58:11;;;;;;;19.80;4.53;;;;;;;11.16;95.35;100486.16;5012870;28;20025;-74
2022/11/07 07:00:36;;;;;;;25.92;4.75;;;;;;;11.20;95.58;100494.78;5030112;28;20084;-74
2022/11/07 07:03:02;;;;;;;13.95;2.88;;;;;;;11.27;95.28;100506.63;5012273;28;20025;-73
2022/11/07 07:05:27;;;;;;;20.65;3.80;;;;;;;11.30;95.10;100500.88;5013110;28;20083;-73
2022/11/07 07:07:56;;;;;;;14.45;4.28;;;;;;;11.40;94.88;100509.66;5012213;28;20068;-73
2022/11/07 07:10:23;;;;;;;22.30;3.85;;;;;;;11.41;94.40;100503.25;5012139;28;20055;-73
2022/11/07 07:12:49;;;;;;;12.93;3.25;;;;;;;11.38;94.52;100517.97;5028571;28;20039;-72
2022/11/07 07:15:14;;;;;;;14.95;4.40;;;;;;;11.54;94.30;100492.69;5012021;28;20033;-72
2022/11/07 07:17:40;;;;;;;19.10;3.50;;;;;;;11.45;94.50;100515.41;5011883;28;20026;-73
2022/11/07 07:20:06;;;;;;;18.52;3.90;;;;;;;11.55;94.25;100510.66;5012063;28;20045;-72
2022/11/07 07:22:31;;;;;;;18.70;3.58;;;;;;;11.52;94.31;100511.00;5029972;28;20047;-72
2022/11/07 07:24:57;;;;;;;13.00;3.47;;;;;;;11.65;94.20;100516.72;5012807;28;20072;-73
2022/11/07 07:27:22;;;;;;;13.13;3.80;;;;;;;11.69;93.99;100512.66;5011707;28;20033;-73
2022/11/07 07:29:48;;;;;;;14.57;3.58;;;;;;;11.64;93.84;100504.19;5029209;28;20033;-75
2022/11/07 07:32:14;;;;;;;13.07;3.47;;;;;;;11.71;93.75;100503.47;5030692;28;20103;-75
2022/11/07 07:34:40;;;;;;;13.23;4.07;;;;;;;11.78;94.03;100515.31;5012675;28;20060;-75
2022/11/07 07:37:06;;;;;;;21.05;4.35;;;;;;;11.86;92.99;100523.44;5011731;28;20093;-75
2022/11/07 07:39:31;;;;;;;19.40;3.75;;;;;;;11.81;93.39;100525.88;4996501;28;20033;-75
2022/11/07 07:41:56;;;;;;;13.93;3.47;;;;;;;11.76;93.88;100528.22;5007144;28;20512;-75
2022/11/07 07:44:31;;;;;;;15.82;4.03;;;;;;;11.80;93.61;100518.69;5012065;28;20029;-75
2022/11/07 07:46:56;;;;;;;17.90;4.55;;;;;;;11.73;93.71;100517.69;5011729;28;20107;-75
2022/11/07 07:49:22;;;;;;;15.48;3.38;;;;;;;11.64;94.38;100515.03;5011869;28;20026;-75
2022/11/07 07:51:47;;;;;;;13.82;3.58;;;;;;;11.77;93.83;100524.47;5029204;28;20025;-75
2022/11/07 07:54:12;;;;;;;22.05;4.55;;;;;;;11.69;93.83;100518.06;5011721;28;20025;-75
2022/11/07 07:56:38;;;;;;;19.27;4.25;;;;;;;11.83;93.27;100515.69;4999781;28;20040;-75
2022/11/07 07:59:03;;;;;;;14.82;3.75;;;;;;;11.85;93.67;100532.63;5015914;28;20064;-75
2022/11/07 08:01:29;;;;;;;17.15;3.95;;;;;;;12.02;92.42;100523.41;5025840;28;20064;-76
2022/11/07 08:03:54;;;;;;;21.98;3.85;;;;;;;11.86;93.41;100518.03;4994312;28;20127;-76
2022/11/07 08:06:19;;;;;;;18.98;4.30;;;;;;;11.95;93.13;100522.41;5008617;28;20518;-75
2022/11/07 08:08:45;;;;;;;13.75;3.63;;;;;;;12.00;92.27;100536.31;5003713;28;20108;-75
2022/11/07 08:11:10;;;;;;;31.67;4.70;;;;;;;12.07;92.57;100537.28;5006784;28;20030;-76
2022/11/07 08:13:36;;;;;;;19.73;3.53;;;;;;;12.00;92.62;100525.47;4997710;28;20026;-75
2022/11/07 08:16:04;;;;;;;16.50;3.47;;;;;;;11.99;92.13;100529.16;5009824;28;20075;-75
2022/11/07 08:18:29;;;;;;;16.25;3.88;;;;;;;12.21;91.64;100527.56;5002840;28;20022;-75
2022/11/07 08:20:55;;;;;;;14.82;2.95;;;;;;;12.21;91.61;100528.41;5006209;28;20026;-76
2022/11/07 08:23:22;;;;;;;20.73;4.38;;;;;;;12.19;91.65;100533.19;5018452;28;20055;-75
2022/11/07 08:25:56;;;;;;;19.25;3.50;;;;;;;12.25;91.52;100555.19;5016389;28;20033;-75
2022/11/07 08:28:27;;;;;;;12.63;3.30;;;;;;;12.25;91.23;100550.59;5006807;28;20037;-75
2022/11/07 08:30:56;;;;;;;12.63;3.50;;;;;;;12.16;91.86;100544.38;5017450;28;20032;-76
2022/11/07 08:33:22;;;;;;;20.67;4.60;;;;;;;12.25;91.73;100538.91;5028571;28;20279;-76
2022/11/07 08:35:47;;;;;;;16.63;3.58;;;;;;;12.41;91.09;100539.66;5006927;28;20052;-75
2022/11/07 08:38:13;;;;;;;17.05;4.50;;;;;;;12.24;91.65;100543.47;5021145;28;20056;-75
2022/11/07 08:40:39;;;;;;;25.05;3.35;;;;;;;12.34;91.56;100557.69;5034767;28;20036;-76
2022/11/07 08:43:04;;;;;;;19.58;4.15;;;;;;;12.33;91.49;100552.44;5020687;28;20037;-76
2022/11/07 08:45:30;;;;;;;22.27;3.95;;;;;;;12.40;90.94;100558.84;5037465;28;20044;-76
2022/11/07 08:47:57;;;;;;;19.17;4.45;;;;;;;12.36;91.29;100552.06;5015801;28;20041;-75
2022/11/07 08:50:23;;;;;;;16.27;3.10;;;;;;;12.39;91.20;100546.31;5023863;28;20100;-76
2022/11/07 08:52:48;;;;;;;22.90;3.95;;;;;;;12.32;91.34;100559.72;5020554;28;20116;-76
2022/11/07 08:55:16;;;;;;;15.55;3.70;;;;;;;12.35;90.91;100574.81;5018157;28;20056;-75
2022/11/07 08:57:42;;;;;;;11.38;3.08;;;;;;;12.30;90.95;100552.78;5025619;28;20025;-76
2022/11/07 09:00:08;;;;;;;17.48;4.15;;;;;;;12.50;90.57;100559.47;5026798;28;20021;-76
2022/11/07 09:02:33;;;;;;;23.98;4.72;;;;;;;12.54;90.48;100560.81;5009892;28;20037;-76
2022/11/07 09:04:59;;;;;;;15.30;3.00;;;;;;;12.65;90.35;100552.25;5010691;28;20017;-76
2022/11/07 09:07:24;;;;;;;22.20;4.10;;;;;;;12.67;90.04;100565.66;5032152;28;20059;-76
2022/11/07 09:09:50;;;;;;;16.05;3.38;;;;;;;12.61;90.31;100567.22;5014271;28;20032;-77
2022/11/07 09:12:16;;;;;;;22.33;3.45;;;;;;;12.66;89.44;100570.25;5018890;28;20547;-75
2022/11/07 09:14:41;;;;;;;15.55;4.28;;;;;;;12.80;89.51;100565.06;5036578;28;20040;-74
2022/11/07 09:17:06;;;;;;;15.98;3.35;;;;;;;12.70;89.83;100566.13;5022727;28;20025;-76
2022/11/07 09:19:35;;;;;;;22.33;3.35;;;;;;;12.89;89.44;100558.53;5012450;28;20055;-76
2022/11/07 09:22:00;;;;;;;16.00;4.15;;;;;;;13.17;88.49;100562.41;5029754;28;20025;-76
2022/11/07 09:24:25;;;;;;;16.52;4.22;;;;;;;13.21;88.12;100555.59;5019597;28;20080;-76
2022/11/07 09:26:51;;;;;;;16.08;3.85;;;;;;;12.98;89.09;100568.34;5015700;28;20069;-76
2022/11/07 09:29:16;;;;;;;16.90;4.20;;;;;;;13.05;88.61;100574.72;5023036;28;20185;-76
2022/11/07 09:31:42;;;;;;;22.17;4.10;;;;;;;13.15;87.81;100558.16;5008723;28;20478;-76
2022/11/07 09:34:07;;;;;;;22.45;4.60;;;;;;;13.13;88.16;100554.78;5005415;28;20034;-76
2022/11/07 09:36:33;;;;;;;12.40;3.10;;;;;;;13.07;87.92;100561.78;5022782;28;20036;-75
2022/11/07 09:38:59;;;;;;;24.42;3.05;;;;;;;13.25;87.67;100565.09;5010545;28;20041;-75
2022/11/07 09:41:46;;;;;;;16.17;3.50;;;;;;;13.32;87.05;100558.91;5008738;28;20033;-75
2022/11/07 09:44:46;;;;;;;17.33;3.35;;;;;;;13.32;86.92;100570.63;5005313;28;20095;-75
2022/11/07 09:47:17;;;;;;;13.55;3.47;;;;;;;13.37;86.47;100567.38;5021515;28;20056;-75
2022/11/07 09:49:47;;;;;;;19.15;3.90;;;;;;;13.50;85.83;100567.59;5011398;28;20029;-75
2022/11/07 09:52:22;;;;;;;14.43;2.60;;;;;;;13.71;85.19;100570.41;5009800;28;20033;-74
2022/11/07 09:54:54;;;;;;;20.55;3.15;;;;;;;13.57;85.05;100584.84;5011465;28;20029;-74
2022/11/07 09:57:21;;;;;;;18.50;4.10;;;;;;;13.55;85.23;100578.72;5011406;28;20044;-76
2022/11/07 10:00:15;;;;;;;20.23;3.75;;;;;;;13.58;85.62;100581.09;5030837;28;20033;-75
2022/11/07 10:02:53;;;;;;;30.17;4.50;;;;;;;13.47;85.53;100595.13;5018166;28;20033;-74
2022/11/07 10:05:33;;;;;;;15.23;4.35;;;;;;;13.42;85.84;100609.28;5034078;28;20039;-75
2022/11/07 10:08:06;;;;;;;15.85;3.10;;;;;;;13.39;86.42;100587.06;5038421;28;20025;-75
2022/11/07 10:10:48;;;;;;;16.77;3.58;;;;;;;13.52;86.46;100598.16;5025933;28;20051;-76
2022/11/07 10:13:46;;;;;;;21.65;4.45;;;;;;;13.50;86.24;100605.66;5017977;28;20116;-75
2022/11/07 10:16:22;;;;;;;13.55;3.28;;;;;;;13.63;86.06;100614.03;5017118;28;20025;-75
2022/11/07 10:18:55;;;;;;;15.35;3.00;;;;;;;13.68;85.95;100595.25;5033587;28;20040;-75
2022/11/07 10:21:37;;;;;;;14.55;3.80;;;;;;;13.80;85.83;100612.00;5022231;28;20025;-75
2022/11/07 10:24:33;;;;;;;18.30;3.90;;;;;;;13.50;86.93;100616.53;5026603;28;20026;-75
2022/11/07 10:27:01;;;;;;;28.25;4.22;;;;;;;13.56;87.00;100626.66;5028278;28;20128;-75
2022/11/07 10:29:41;;;;;;;19.17;4.68;;;;;;;13.36;87.31;100630.91;5015162;28;20029;-75
2022/11/07 10:32:19;;;;;;;17.00;4.43;;;;;;;13.40;87.45;100621.38;5021694;28;20148;-76
2022/11/07 10:34:51;;;;;;;19.73;4.28;;;;;;;13.13;88.16;100614.59;5019425;28;20116;-76
2022/11/07 10:37:16;;;;;;;;;;;;;;;13.12;88.35;100630.06;5017701;28;20175;-76
2022/11/07 10:39:42;;;;;;;22.90;4.65;;;;;;;13.26;88.01;100609.41;5017682;28;19956;-75
2022/11/07 10:42:11;;;;;;;16.60;3.95;;;;;;;13.30;87.69;100621.59;5008341;28;20026;-76
2022/11/07 10:44:39;;;;;;;15.40;3.85;;;;;;;13.42;87.03;100624.75;5003103;28;20029;-75
2022/11/07 10:47:16;;;;;;;16.55;3.83;;;;;;;13.48;86.78;100613.13;5019325;28;20026;-75
2022/11/07 10:49:53;;;;;;;19.02;4.95;;;;;;;13.40;86.88;100616.78;5015804;28;20032;-75
2022/11/07 10:52:18;;;;;;;19.52;4.30;;;;;;;13.43;86.74;100637.31;5014011;28;20052;-75
2022/11/07 10:54:45;;;;;;;18.48;3.55;;;;;;;13.46;86.61;100621.50;5026810;28;20049;-77
2022/11/07 10:57:22;;;;;;;18.13;4.30;;;;;;;13.59;86.60;100609.97;5017968;28;20020;-75
2022/11/07 10:59:50;;;;;;;16.63;4.15;;;;;;;13.65;86.36;100620.13;5029869;28;20022;-74
2022/11/07 11:02:25;;;;;;;18.25;4.10;;;;;;;13.68;85.52;100624.34;5010364;28;20116;-75
2022/11/07 11:04:56;;;;;;;24.55;3.53;;;;;;;13.60;85.60;100617.09;5011546;28;20378;-74
2022/11/07 11:07:33;;;;;;;13.13;3.53;;;;;;;13.55;85.46;100608.66;5030631;28;20059;-75
2022/11/07 11:09:59;;;;;;;20.13;3.70;;;;;;;13.83;84.12;100628.81;5012749;28;20056;-75
2022/11/07 11:12:32;;;;;;;11.07;2.80;;;;;;;13.75;84.49;100604.38;5027680;28;20061;-75
2022/11/07 11:15:10;;;;;;;19.95;4.25;;;;;;;13.76;84.89;100614.25;5021151;28;20116;-75
2022/11/07 11:17:35;;;;;;;15.73;3.75;;;;;;;13.56;85.65;100616.66;4995761;28;20044;-74
2022/11/07 11:20:02;;;;;;;22.17;3.38;;;;;;;13.54;86.00;100606.97;5008719;28;20025;-76
2022/11/07 11:22:28;;;;;;;17.65;3.63;;;;;;;13.66;86.11;100613.66;5009906;28;20021;-74
2022/11/07 11:25:26;;;;;;;20.45;4.45;;;;;;;13.62;85.49;100598.72;5030867;28;20040;-74
2022/11/07 11:28:03;;;;;;;19.77;4.10;;;;;;;13.47;85.82;100606.84;4988259;28;20053;-74
2022/11/07 11:30:31;;;;;;;20.48;4.20;;;;;;;13.56;86.11;100604.91;5029373;28;20132;-75
2022/11/07 11:33:21;;;;;;;21.50;4.20;;;;;;;13.75;85.81;100609.81;5017576;28;20025;-75
2022/11/07 11:35:58;;;;;;;16.98;3.92;;;;;;;13.65;85.97;100603.81;5036789;28;20025;-75
2022/11/07 11:38:37;;;;;;;19.30;3.10;;;;;;;13.69;85.94;100609.69;5014029;28;20017;-75